Time;durP1;ratioP1;P1;durP2;ratioP2;P2;SDS_P1;SDS_P2;PMS_P1;PMS_P2;Temp;Humidity;BMP_temperature;BMP_pressure;BME280_temperature;BME280_humidity;BME280_pressure;Samples;Min_cycle;Max_cycle;Signal;HPM_P1;HPM_P2
2022/06/07 00:01:26;;;;;;;;;;;;;;;12.81;100.00;98806.88;5058216;28;20031;-77
2022/06/07 00:03:54;;;;;;;;;;;;;;;12.85;100.00;98802.75;5075468;28;19978;-79
2022/06/07 00:06:21;;;;;;;;;;;;;;;12.81;100.00;98801.28;5075681;28;19924;-79
2022/06/07 00:08:48;;;;;;;;;;;;;;;11.88;100.00;98799.41;5075978;28;20009;-78
2022/06/07 00:11:15;;;;;;;;;;;;;;;12.26;100.00;98799.59;5073032;28;20588;-78
2022/06/07 00:13:42;;;;;;;;;;;;;;;12.12;100.00;98789.56;5075729;28;19929;-78
2022/06/07 00:16:10;;;;;;;;;;;;;;;12.36;100.00;98788.13;5074331;28;20011;-78
2022/06/07 00:18:37;;;;;;;;;;;;;;;12.24;100.00;98785.25;5074310;28;19932;-78
2022/06/07 00:21:05;;;;;;;;;;;;;;;11.88;100.00;98785.41;5075524;28;20021;-78
2022/06/07 00:23:32;;;;;;;;;;;;;;;12.10;100.00;98786.41;5075306;28;19924;-79
2022/06/07 00:25:59;;;;;;;;;;;;;;;11.95;100.00;98785.22;5074492;28;19925;-78
2022/06/07 00:28:27;;;;;;;;;;;;;;;12.05;100.00;98784.16;5108008;28;19928;-78
2022/06/07 00:30:55;;;;;;;;;;;;;;;12.00;100.00;98786.69;5074152;28;19971;-79
2022/06/07 00:33:22;;;;;;;;;;;;;;;11.93;100.00;98787.69;5075155;28;19970;-78
2022/06/07 00:35:50;;;;;;;;;;;;;;;11.78;100.00;98782.88;5090803;28;19931;-78
2022/06/07 00:38:17;;;;;;;;;;;;;;;11.84;100.00;98790.31;5107640;28;19940;-78
2022/06/07 00:40:45;;;;;;;;;;;;;;;12.10;100.00;98778.00;5074291;28;19931;-78
2022/06/07 00:43:13;;;;;;;;;;;;;;;12.14;100.00;98778.72;5073734;28;19924;-79
2022/06/07 00:45:40;;;;;;;;;;;;;;;11.99;100.00;98780.31;5073806;28;19924;-78
2022/06/07 00:48:08;;;;;;;;;;;;;;;12.14;100.00;98781.53;5073544;28;20015;-79
2022/06/07 00:50:52;;;;;;;;;;;;;;;12.15;100.00;98783.09;5057270;28;19928;-78
2022/06/07 00:53:24;;;;;;;;;;;;;;;12.23;100.00;98787.28;5057037;28;20428;-78
2022/06/07 00:55:53;;;;;;;;;;;;;;;12.05;100.00;98778.56;5107383;28;19924;-78
2022/06/07 00:58:22;;;;;;;;;;;;;;;11.33;100.00;98782.72;5073720;28;19924;-78
2022/06/07 01:00:50;;;;;;;;;;;;;;;11.25;100.00;98780.53;5073430;28;19925;-78
2022/06/07 01:03:20;;;;;;;;;;;;;;;11.60;100.00;98797.25;5073312;28;20334;-78
2022/06/07 01:05:51;;;;;;;;;;;;;;;11.94;100.00;98786.44;5073465;28;19932;-78
2022/06/07 01:11:10;;;;;;;;;;;;;;;12.08;100.00;98783.28;5107387;28;19925;-78
2022/06/07 01:13:38;;;;;;;;;;;;;;;12.15;100.00;98782.28;5107176;28;19924;-78
2022/06/07 01:16:18;;;;;;;;;;;;;;;12.30;100.00;98781.47;5072992;28;19932;-78
2022/06/07 01:18:45;;;;;;;;;;;;;;;12.33;100.00;98783.38;5056548;28;19963;-79
2022/06/07 01:21:28;;;;;;;;;;;;;;;12.44;100.00;98789.50;5074527;28;19938;-78
2022/06/07 01:23:59;;;;;;;;;;;;;;;12.57;100.00;98781.91;5073199;28;19931;-78
2022/06/07 01:26:56;;;;;;;;;;;;;;;12.62;100.00;98781.38;5074203;28;19924;-78
2022/06/07 01:29:28;;;;;;;;;;;;;;;12.71;100.00;98787.13;5056878;28;19979;-78
2022/06/07 01:31:56;;;;;;;;;;;;;;;12.38;100.00;98777.25;5072248;28;19931;-78
2022/06/07 01:34:29;;;;;;;;;;;;;;;12.09;100.00;98781.25;5074263;28;19947;-79
2022/06/07 01:36:59;;;;;;;;;;;;;;;12.48;100.00;98784.56;5074053;28;19925;-78
2022/06/07 01:42:21;;;;;;;;;;;;;;;12.75;100.00;98782.19;5072895;28;19924;-78
2022/06/07 01:44:51;;;;;;;;;;;;;;;12.64;100.00;98773.31;5072460;28;19946;-79
2022/06/07 01:47:24;;;;;;;;;;;;;;;12.29;100.00;98777.09;5107068;28;20221;-78
2022/06/07 01:49:56;;;;;;;;;;;;;;;12.29;100.00;98777.09;5106396;28;19932;-78
2022/06/07 01:52:24;;;;;;;;;;;;;;;12.59;100.00;98773.06;5106546;28;19931;-78
2022/06/07 01:54:55;;;;;;;;;;;;;;;12.79;100.00;98776.47;5072990;28;20220;-79
2022/06/07 01:57:23;;;;;;;;;;;;;;;12.92;100.00;98776.53;5072536;28;19933;-79
2022/06/07 01:59:54;;;;;;;;;;;;;;;12.60;100.00;98769.81;5072283;28;20011;-79
2022/06/07 02:02:27;;;;;;;;;;;;;;;12.12;100.00;98767.16;5106418;28;19976;-78
2022/06/07 02:04:57;;;;;;;;;;;;;;;12.23;100.00;98776.06;5056201;28;19994;-78
2022/06/07 02:07:30;;;;;;;;;;;;;;;12.00;100.00;98762.28;5104816;28;19924;-79
2022/06/07 02:10:03;;;;;;;;;;;;;;;12.19;100.00;98771.78;5106190;28;19936;-78
2022/06/07 02:12:34;;;;;;;;;;;;;;;11.51;100.00;98763.50;5105657;28;19924;-78
2022/06/07 02:15:08;;;;;;;;;;;;;;;11.96;100.00;98781.22;5104558;28;19924;-78
2022/06/07 02:17:36;;;;;;;;;;;;;;;12.11;100.00;98765.59;5073503;28;19947;-78
2022/06/07 02:20:21;;;;;;;;;;;;;;;12.24;100.00;98766.44;5055994;28;19924;-79
2022/06/07 02:22:49;;;;;;;;;;;;;;;11.52;100.00;98778.28;5072313;28;19931;-78
2022/06/07 02:25:19;;;;;;;;;;;;;;;12.01;100.00;98772.25;5072193;28;19925;-79
2022/06/07 02:27:48;;;;;;;;;;;;;;;12.04;100.00;98771.38;5073253;28;19924;-79
2022/06/07 02:30:16;;;;;;;;;;;;;;;12.19;100.00;98769.75;5072119;28;19925;-79
2022/06/07 02:32:43;;;;;;;;;;;;;;;11.51;100.00;98774.69;5073577;28;19924;-79
2022/06/07 02:35:11;;;;;;;;;;;;;;;12.09;100.00;98770.84;5072176;28;19931;-78
2022/06/07 02:37:39;;;;;;;;;;;;;;;12.02;100.00;98765.44;5088859;28;19924;-78
2022/06/07 02:40:09;;;;;;;;;;;;;;;11.76;100.00;98772.13;5072262;28;19959;-78
2022/06/07 02:42:37;;;;;;;;;;;;;;;12.03;100.00;98767.00;5071642;28;19931;-78
2022/06/07 02:45:05;;;;;;;;;;;;;;;12.05;100.00;98760.97;5077180;28;19925;-78
2022/06/07 02:47:32;;;;;;;;;;;;;;;12.25;100.00;98756.78;5076267;28;20020;-78
2022/06/07 02:50:06;;;;;;;;;;;;;;;12.18;100.00;98759.81;5076015;28;20144;-78
2022/06/07 02:52:37;;;;;;;;;;;;;;;12.08;100.00;98749.69;5092865;28;20019;-78
2022/06/07 02:55:18;;;;;;;;;;;;;;;11.94;100.00;98749.25;5092584;28;19924;-79
2022/06/07 02:57:48;;;;;;;;;;;;;;;11.75;100.00;98759.34;5109573;28;19946;-78
2022/06/07 03:00:18;;;;;;;;;;;;;;;12.17;100.00;98761.03;5076129;28;19924;-78
2022/06/07 03:02:47;;;;;;;;;;;;;;;12.20;100.00;98754.56;5077118;28;19935;-78
2022/06/07 03:05:16;;;;;;;;;;;;;;;12.33;100.00;98749.78;5059031;28;19929;-79
2022/06/07 03:07:50;;;;;;;;;;;;;;;12.62;100.00;98744.94;5109529;28;19924;-79
2022/06/07 03:10:19;;;;;;;;;;;;;;;12.74;100.00;98740.59;5075622;28;19938;-78
2022/06/07 03:12:47;;;;;;;;;;;;;;;12.61;100.00;98732.16;5058587;28;19925;-79
2022/06/07 03:15:17;;;;;;;;;;;;;;;12.70;100.00;98737.91;5076904;28;19924;-78
2022/06/07 03:17:45;;;;;;;;;;;;;;;12.57;100.00;98734.25;5076631;28;19993;-79
2022/06/07 03:20:15;;;;;;;;;;;;;;;12.43;100.00;98731.09;5075444;28;19931;-78
2022/06/07 03:22:43;;;;;;;;;;;;;;;12.05;100.00;98732.97;5075396;28;19928;-78
2022/06/07 03:25:11;;;;;;;;;;;;;;;11.98;100.00;98731.13;5092402;28;19967;-79
2022/06/07 03:27:40;;;;;;;;;;;;;;;11.51;100.00;98735.53;5108880;28;19970;-79
2022/06/07 03:30:14;;;;;;;;;;;;;;;11.35;100.00;98735.53;5076620;28;20030;-79
2022/06/07 03:32:43;;;;;;;;;;;;;;;11.57;100.00;98730.97;5109254;28;20299;-79
2022/06/07 03:35:11;;;;;;;;;;;;;;;11.41;100.00;98728.19;5058710;28;19924;-79
2022/06/07 03:37:38;;;;;;;;;;;;;;;11.49;100.00;98740.00;5075437;28;19925;-79
2022/06/07 03:40:10;;;;;;;;;;;;;;;11.73;100.00;98738.63;5091951;28;20009;-79
2022/06/07 03:42:39;;;;;;;;;;;;;;;11.79;100.00;98732.06;5108521;28;19938;-79
2022/06/07 03:45:07;;;;;;;;;;;;;;;11.81;100.00;98740.81;5075127;28;19928;-79
2022/06/07 03:47:37;;;;;;;;;;;;;;;11.57;100.00;98736.56;5108919;28;19924;-79
2022/06/07 03:50:05;;;;;;;;;;;;;;;11.19;100.00;98734.75;5074956;28;20058;-79
2022/06/07 03:52:33;;;;;;;;;;;;;;;11.08;100.00;98742.59;5074889;28;20382;-79
2022/06/07 03:55:02;;;;;;;;;;;;;;;11.43;100.00;98734.16;5074180;28;20062;-78
2022/06/07 03:57:32;;;;;;;;;;;;;;;11.68;100.00;98731.53;5075024;28;20272;-79
2022/06/07 04:00:02;;;;;;;;;;;;;;;11.78;100.00;98735.28;5108590;28;19964;-79
2022/06/07 04:02:41;;;;;;;;;;;;;;;11.35;100.00;98738.34;5076059;28;19924;-79
2022/06/07 04:05:10;;;;;;;;;;;;;;;11.70;100.00;98740.28;5108365;28;19928;-78
2022/06/07 04:10:23;;;;;;;;;;;;;;;11.23;100.00;98744.63;5074312;28;20279;-79
2022/06/07 04:12:51;;;;;;;;;;;;;;;10.92;100.00;98751.72;5074669;28;20299;-79
2022/06/07 04:15:23;;;;;;;;;;;;;;;10.77;100.00;98753.25;5108442;28;19924;-78
2022/06/07 04:17:53;;;;;;;;;;;;;;;10.66;100.00;98755.50;5108590;28;19925;-79
2022/06/07 04:20:34;;;;;;;;;;;;;;;11.11;100.00;98753.69;5074675;28;19959;-79
2022/06/07 04:23:02;;;;;;;;;;;;;;;11.03;100.00;98752.28;5107980;28;19924;-79
2022/06/07 04:25:36;;;;;;;;;;;;;;;11.05;100.00;98749.84;5057362;28;19925;-79
2022/06/07 04:28:05;;;;;;;;;;;;;;;11.18;100.00;98747.94;5058208;28;19925;-79
2022/06/07 04:30:33;;;;;;;;;;;;;;;11.62;100.00;98749.25;5074247;28;19929;-79
2022/06/07 04:33:04;;;;;;;;;;;;;;;12.06;100.00;98738.13;5107869;28;19924;-79
2022/06/07 04:35:31;;;;;;;;;;;;;;;12.22;100.00;98740.09;5107867;28;19925;-78
2022/06/07 04:38:01;;;;;;;;;;;;;;;11.95;100.00;98740.41;5074372;28;19932;-79
2022/06/07 04:40:41;;;;;;;;;;;;;;;11.85;100.00;98741.50;5107657;28;20334;-79
2022/06/07 04:43:10;;;;;;;;;;;;;;;11.96;100.00;98739.22;5090755;28;19924;-79
2022/06/07 04:45:38;;;;;;;;;;;;;;;12.32;100.00;98742.59;5107711;28;19924;-79
2022/06/07 04:48:09;;;;;;;;;;;;;;;12.60;100.00;98747.38;5073904;28;19925;-79
2022/06/07 04:50:45;;;;;;;;;;;;;;;12.74;100.00;98741.38;5073930;28;19924;-79
2022/06/07 04:53:16;;;;;;;;;;;;;;;12.58;100.00;98740.66;5073696;28;19929;-79
2022/06/07 04:55:43;;;;;;;;;;;;;;;12.53;100.00;98739.19;5107505;28;19931;-79
2022/06/07 04:58:11;;;;;;;;;;;;;;;12.56;100.00;98741.13;5073918;28;19925;-79
2022/06/07 05:00:41;;;;;;;;;;;;;;;12.95;100.00;98744.78;5107522;28;19967;-79
2022/06/07 05:03:09;;;;;;;;;;;;;;;13.22;100.00;98742.34;5090387;28;19951;-79
2022/06/07 05:05:38;;;;;;;;;;;;;;;13.31;100.00;98739.66;5072961;28;20407;-79
2022/06/07 05:08:11;;;;;;;;;;;;;;;13.46;100.00;98740.78;5073338;28;19924;-79
2022/06/07 05:10:39;;;;;;;;;;;;;;;13.59;100.00;98744.34;5107493;28;19955;-79
2022/06/07 05:13:07;;;;;;;;;;;;;;;13.63;100.00;98739.41;5107151;28;19924;-79
2022/06/07 05:15:38;;;;;;;;;;;;;;;13.63;100.00;98740.19;5073337;28;19947;-79
2022/06/07 05:18:10;;;;;;;;;;;;;;;13.68;100.00;98738.81;5107192;28;19947;-79
2022/06/07 05:20:39;;;;;;;;;;;;;;;13.62;100.00;98743.44;5074454;28;19978;-75
2022/06/07 05:23:11;;;;;;;;;;;;;;;14.01;100.00;98738.06;5040221;28;20329;-77
2022/06/07 05:25:59;;;;;;;;;;;;;;;14.09;100.00;98733.78;5072510;28;19925;-77
2022/06/07 05:28:28;;;;;;;;;;;;;;;14.00;100.00;98730.09;5071122;28;20024;-77
2022/06/07 05:30:58;;;;;;;;;;;;;;;14.19;100.00;98731.84;5056880;28;20489;-77
2022/06/07 05:33:38;;;;;;;;;;;;;;;14.45;100.00;98728.47;5073088;28;19924;-76
2022/06/07 05:36:06;;;;;;;;;;;;;;;14.08;100.00;98723.00;5073067;28;20280;-76
2022/06/07 05:38:34;;;;;;;;;;;;;;;14.11;100.00;98725.69;5072903;28;20283;-75
2022/06/07 05:41:13;;;;;;;;;;;;;;;14.36;100.00;98724.81;5072951;28;20322;-75
2022/06/07 05:43:41;;;;;;;;;;;;;;;14.82;100.00;98712.63;5073071;28;20331;-75
2022/06/07 05:46:09;;;;;;;;;;;;;;;15.16;100.00;98720.91;5072731;28;19928;-75
2022/06/07 05:48:53;;;;;;;;;;;;;;;15.38;100.00;98721.69;5072757;28;20457;-75
2022/06/07 05:51:41;;;;;;;;;;;;;;;15.71;100.00;98714.25;5073517;28;19958;-75
2022/06/07 05:54:10;;;;;;;;;;;;;;;16.02;100.00;98714.91;5049654;28;20399;-73
2022/06/07 05:56:37;;;;;;;;;;;;;;;16.09;100.00;98706.19;5068284;28;19924;-75
2022/06/07 05:59:07;;;;;;;;;;;;;;;16.27;100.00;98701.81;5086088;28;20364;-72
2022/06/07 06:01:35;;;;;;;;;;;;;;;16.53;100.00;98708.69;5069251;28;20591;-76
2022/06/07 06:04:07;;;;;;;;;;;;;;;16.70;100.00;98702.25;5070011;28;19968;-76
2022/06/07 06:06:40;;;;;;;;;;;;;;;16.40;100.00;98693.94;5051624;28;19924;-76
2022/06/07 06:11:56;;;;;;;;;;;;;;;16.83;100.00;98705.66;5068690;28;19924;-76
2022/06/07 06:14:30;;;;;;;;;;;;;;;16.94;100.00;98699.50;5068709;28;20296;-75
2022/06/07 06:17:04;;;;;;;;;;;;;;;17.19;100.00;98705.53;5071906;28;19952;-76
2022/06/07 06:19:40;;;;;;;;;;;;;;;17.59;100.00;98693.94;5071659;28;19939;-76
2022/06/07 06:22:08;;;;;;;;;;;;;;;17.99;100.00;98694.31;5055197;28;19967;-76
2022/06/07 06:24:41;;;;;;;;;;;;;;;18.02;100.00;98687.69;5072378;28;19928;-76
2022/06/07 06:27:09;;;;;;;;;;;;;;;18.01;100.00;98688.94;5072480;28;19995;-76
2022/06/07 06:29:41;;;;;;;;;;;;;;;18.09;100.00;98692.97;5072435;28;19932;-73
2022/06/07 06:32:08;;;;;;;;;;;;;;;18.09;100.00;98687.31;5073599;28;20407;-75
2022/06/07 06:34:38;;;;;;;;;;;;;;;18.06;100.00;98684.66;5088767;28;20552;-76
2022/06/07 06:37:09;;;;;;;;;;;;;;;17.77;100.00;98688.16;5072417;28;19940;-76
2022/06/07 06:39:40;;;;;;;;;;;;;;;17.81;100.00;98688.78;5072453;28;19925;-76
2022/06/07 06:42:07;;;;;;;;;;;;;;;17.86;100.00;98688.88;5072410;28;19924;-76
2022/06/07 06:45:00;;;;;;;;;;;;;;;17.91;100.00;98681.78;5072174;28;19932;-75
2022/06/07 06:47:27;;;;;;;;;;;;;;;18.10;100.00;98688.84;5070976;28;20027;-75
2022/06/07 06:49:54;;;;;;;;;;;;;;;18.21;100.00;98683.44;5071724;28;20283;-74
2022/06/07 06:52:22;;;;;;;;;;;;;;;18.22;100.00;98681.41;5055282;28;20284;-73
2022/06/07 06:54:50;;;;;;;;;;;;;;;18.07;100.00;98678.50;5072030;28;19978;-75
2022/06/07 06:57:22;;;;;;;;;;;;;;;18.24;100.00;98681.69;5072058;28;20292;-76
2022/06/07 06:59:53;;;;;;;;;;;;;;;18.44;100.00;98679.03;5071948;28;19931;-75
2022/06/07 07:02:21;;;;;;;;;;;;;;;18.62;100.00;98684.50;5072102;28;19924;-75
2022/06/07 07:05:02;;;;;;;;;;;;;;;18.89;100.00;98682.16;5088248;28;19934;-73
2022/06/07 07:07:31;;;;;;;;;;;;;;;18.55;100.00;98674.38;5071949;28;19951;-75
2022/06/07 07:09:59;;;;;;;;;;;;;;;18.24;100.00;98671.16;5071876;28;19952;-75
2022/06/07 07:12:26;;;;;;;;;;;;;;;18.09;100.00;98670.34;5071660;28;19936;-75
2022/06/07 07:14:58;;;;;;;;;;;;;;;18.06;100.00;98674.13;5055122;28;19970;-75
2022/06/07 07:17:33;;;;;;;;;;;;;;;18.42;100.00;98667.44;5072010;28;19925;-74
2022/06/07 07:20:03;;;;;;;;;;;;;;;18.36;100.00;98666.53;5071389;28;19925;-75
2022/06/07 07:22:36;;;;;;;;;;;;;;;18.69;100.00;98682.06;5055091;28;19935;-75
2022/06/07 07:25:06;;;;;;;;;;;;;;;19.76;100.00;98677.63;5071612;28;19924;-75
2022/06/07 07:27:33;;;;;;;;;;;;;;;20.55;100.00;98679.69;5054886;28;19925;-73
2022/06/07 07:30:01;;;;;;;;;;;;;;;21.05;100.00;98674.50;5073440;28;19924;-74
2022/06/07 07:32:34;;;;;;;;;;;;;;;21.94;100.00;98662.47;5075218;28;20042;-74
2022/06/07 07:35:03;;;;;;;;;;;;;;;21.88;100.00;98658.81;5058442;28;19960;-73
2022/06/07 07:37:38;;;;;;;;;;;;;;;21.79;100.00;98661.88;5058267;28;19978;-73
2022/06/07 07:40:12;;;;;;;;;;;;;;;23.33;100.00;98661.50;5075259;28;19925;-74
2022/06/07 07:42:41;;;;;;;;;;;;;;;23.95;100.00;98660.88;5075053;28;19931;-74
2022/06/07 07:45:12;;;;;;;;;;;;;;;24.46;100.00;98653.66;5074878;28;19940;-74
2022/06/07 07:47:42;;;;;;;;;;;;;;;25.08;100.00;98651.97;5058096;28;19924;-74
2022/06/07 07:50:11;;;;;;;;;;;;;;;25.98;100.00;98637.84;5075112;28;19986;-74
2022/06/07 07:52:43;;;;;;;;;;;;;;;25.47;100.00;98638.91;5058143;28;19941;-74
2022/06/07 07:55:13;;;;;;;;;;;;;;;25.75;100.00;98630.03;5074945;28;19973;-74
2022/06/07 07:57:42;;;;;;;;;;;;;;;26.55;100.00;98633.72;5074978;28;19924;-74
2022/06/07 08:00:14;;;;;;;;;;;;;;;24.72;100.00;98631.16;5074924;28;19925;-74
2022/06/07 08:02:47;;;;;;;;;;;;;;;24.87;100.00;98631.56;5074478;28;19925;-74
2022/06/07 08:05:29;;;;;;;;;;;;;;;25.11;100.00;98634.53;5074656;28;20015;-74
2022/06/07 08:07:57;;;;;;;;;;;;;;;23.44;100.00;98635.84;5076259;28;20468;-74
2022/06/07 08:10:25;;;;;;;;;;;;;;;25.10;100.00;98627.25;5075763;28;19924;-74
2022/06/07 08:12:55;;;;;;;;;;;;;;;26.82;100.00;98612.50;5073683;28;20352;-75
2022/06/07 08:15:23;;;;;;;;;;;;;;;27.44;100.00;98610.94;5074480;28;19924;-74
2022/06/07 08:17:52;;;;;;;;;;;;;;;28.66;100.00;98600.59;5075354;28;19924;-74
2022/06/07 08:20:20;;;;;;;;;;;;;;;29.23;100.00;98604.47;5057685;28;19960;-74
2022/06/07 08:22:47;;;;;;;;;;;;;;;29.93;100.00;98590.81;5075205;28;19929;-75
2022/06/07 08:25:14;;;;;;;;;;;;;;;29.04;100.00;98603.84;5075495;28;19935;-74
2022/06/07 08:27:42;;;;;;;;;;;;;;;29.42;100.00;98599.25;5074225;28;19925;-75
2022/06/07 08:30:09;;;;;;;;;;;;;;;29.72;100.00;98594.50;5075301;28;19928;-75
2022/06/07 08:32:41;;;;;;;;;;;;;;;30.37;100.00;98592.41;5074046;28;19928;-74
2022/06/07 08:37:57;;;;;;;;;;;;;;;27.65;100.00;98596.72;5074041;28;20280;-75
2022/06/07 08:40:28;;;;;;;;;;;;;;;28.24;100.00;98593.16;5057321;28;19931;-75
2022/06/07 08:42:56;;;;;;;;;;;;;;;25.21;100.00;98601.41;5075347;28;19925;-74
2022/06/07 08:45:26;;;;;;;;;;;;;;;24.78;100.00;98594.75;5074729;28;19931;-74
2022/06/07 08:48:04;;;;;;;;;;;;;;;25.45;100.00;98595.75;5074941;28;19925;-74
2022/06/07 08:50:38;;;;;;;;;;;;;;;25.04;100.00;98594.31;5075100;28;19930;-74
2022/06/07 08:53:08;;;;;;;;;;;;;;;24.62;100.00;98587.06;5074967;28;19964;-74
2022/06/07 08:55:57;;;;;;;;;;;;;;;25.83;100.00;98596.63;5075118;28;20007;-76
2022/06/07 08:58:29;;;;;;;;;;;;;;;25.66;100.00;98587.44;5074796;28;19924;-76
2022/06/07 09:00:58;;;;;;;;;;;;;;;25.14;100.00;98599.16;5074368;28;19928;-76
2022/06/07 09:03:46;;;;;;;;;;;;;;;23.86;100.00;98614.69;5072772;28;20066;-76
2022/06/07 09:06:17;;;;;;;;;;;;;;;21.93;100.00;98612.53;5073408;28;19931;-76
2022/06/07 09:08:46;;;;;;;;;;;;;;;21.92;100.00;98613.84;5073352;28;19948;-75
2022/06/07 09:14:06;;;;;;;;;;;;;;;20.71;100.00;98618.66;5074245;28;19978;-75
2022/06/07 09:16:38;;;;;;;;;;;;;;;21.25;100.00;98626.09;5073293;28;20010;-75
2022/06/07 09:19:10;;;;;;;;;;;;;;;21.13;100.00;98624.44;5073212;28;20295;-76
2022/06/07 09:21:39;;;;;;;;;;;;;;;21.04;100.00;98616.13;5073316;28;19955;-75
2022/06/07 09:24:12;;;;;;;;;;;;;;;22.39;100.00;98623.53;5073074;28;19925;-76
2022/06/07 09:26:41;;;;;;;;;;;;;;;23.01;100.00;98617.44;5073113;28;20586;-75
2022/06/07 09:29:12;;;;;;;;;;;;;;;23.69;100.00;98614.00;5056347;28;19928;-75
2022/06/07 09:31:41;;;;;;;;;;;;;;;22.73;100.00;98608.88;5072956;28;19925;-76
2022/06/07 09:34:15;;;;;;;;;;;;;;;22.88;100.00;98614.34;5074258;28;20446;-76
2022/06/07 09:36:43;;;;;;;;;;;;;;;21.34;100.00;98606.03;5074175;28;20568;-76
2022/06/07 09:39:18;;;;;;;;;;;;;;;21.32;100.00;98611.44;5074028;28;19928;-75
2022/06/07 09:41:47;;;;;;;;;;;;;;;21.29;100.00;98604.69;5056447;28;19924;-75
2022/06/07 09:44:21;;;;;;;;;;;;;;;20.96;100.00;98606.53;5072552;28;19931;-75
2022/06/07 09:47:11;;;;;;;;;;;;;;;21.63;100.00;98608.50;5074188;28;20338;-76
2022/06/07 09:49:41;;;;;;;;;;;;;;;22.45;100.00;98610.09;5073982;28;19929;-75
2022/06/07 09:52:14;;;;;;;;;;;;;;;22.90;100.00;98612.50;5073474;28;19932;-76
2022/06/07 09:54:43;;;;;;;;;;;;;;;22.19;100.00;98593.22;5073845;28;19931;-75
2022/06/07 09:57:29;;;;;;;;;;;;;;;22.50;100.00;98590.25;5073800;28;19924;-76
2022/06/07 09:59:56;;;;;;;;;;;;;;;23.33;100.00;98592.28;5072654;28;19925;-77
2022/06/07 10:02:23;;;;;;;;;;;;;;;23.83;100.00;98587.22;5073928;28;19952;-76
2022/06/07 10:04:53;;;;;;;;;;;;;;;23.12;100.00;98577.53;5072456;28;19931;-76
2022/06/07 10:07:32;;;;;;;;;;;;;;;23.61;100.00;98584.47;5073547;28;19929;-76
2022/06/07 10:10:18;;;;;;;;;;;;;;;23.95;100.00;98574.47;5073765;28;19925;-76
2022/06/07 10:12:48;;;;;;;;;;;;;;;22.96;100.00;98576.25;5073566;28;20342;-76
2022/06/07 10:15:21;;;;;;;;;;;;;;;22.29;100.00;98580.34;5072519;28;19940;-76
2022/06/07 10:18:00;;;;;;;;;;;;;;;22.60;100.00;98580.16;5072258;28;19925;-76
2022/06/07 10:20:27;;;;;;;;;;;;;;;22.94;100.00;98578.88;5073483;28;20396;-76
2022/06/07 10:23:13;;;;;;;;;;;;;;;23.54;100.00;98579.31;5072201;28;19925;-76
2022/06/07 10:25:44;;;;;;;;;;;;;;;23.21;100.00;98576.47;5072203;28;19924;-76
2022/06/07 10:28:14;;;;;;;;;;;;;;;23.28;100.00;98571.06;5054998;28;19967;-76
2022/06/07 10:31:06;;;;;;;;;;;;;;;23.21;100.00;98570.78;5072270;28;19986;-76
2022/06/07 10:33:36;;;;;;;;;;;;;;;23.73;100.00;98574.56;5072278;28;20379;-76
2022/06/07 10:36:16;;;;;;;;;;;;;;;22.44;100.00;98566.66;5073360;28;20443;-76
2022/06/07 10:38:43;;;;;;;;;;;;;;;21.85;100.00;98574.53;5073704;28;19925;-76
2022/06/07 10:41:29;;;;;;;;;;;;;;;21.84;100.00;98567.25;5071821;28;20030;-76
2022/06/07 10:43:59;;;;;;;;;;;;;;;23.30;100.00;98579.09;5073372;28;19930;-76
2022/06/07 10:46:28;;;;;;;;;;;;;;;23.52;100.00;98565.59;5073273;28;19924;-76
2022/06/07 10:49:10;;;;;;;;;;;;;;;22.82;100.00;98560.22;5073417;28;19924;-76
2022/06/07 10:54:31;;;;;;;;;;;;;;;23.94;100.00;98561.50;5073415;28;20011;-76
2022/06/07 10:57:06;;;;;;;;;;;;;;;22.87;100.00;98562.28;5055076;28;20310;-76
2022/06/07 10:59:36;;;;;;;;;;;;;;;23.56;100.00;98553.88;5073192;28;19925;-75
2022/06/07 11:02:14;;;;;;;;;;;;;;;23.37;100.00;98564.31;5071724;28;19924;-74
2022/06/07 11:10:27;;;;;;;;;;;;;;;20.72;100.00;98552.09;5075048;28;19928;-75
2022/06/07 11:13:06;;;;;;;;;;;;;;;21.71;100.00;98564.09;5074227;28;19924;-74
2022/06/07 11:15:52;;;;;;;;;;;;;;;22.21;100.00;98556.53;5075480;28;19974;-74
2022/06/07 11:18:20;;;;;;;;;;;;;;;22.36;100.00;98548.53;5074791;28;19935;-74
2022/06/07 11:21:01;;;;;;;;;;;;;;;21.83;100.00;98537.28;5075875;28;20023;-74
2022/06/07 11:23:44;;;;;;;;;;;;;;;22.11;100.00;98541.00;5075885;28;19932;-74
2022/06/07 11:26:16;;;;;;;;;;;;;;;22.74;100.00;98542.09;5074389;28;19929;-74
2022/06/07 11:28:45;;;;;;;;;;;;;;;22.82;100.00;98548.84;5076176;28;19990;-74
2022/06/07 11:31:15;;;;;;;;;;;;;;;22.75;100.00;98549.34;5057933;28;20371;-75
2022/06/07 11:33:51;;;;;;;;;;;;;;;22.86;100.00;98551.41;5075628;28;19931;-74
2022/06/07 11:36:25;;;;;;;;;;;;;;;22.25;100.00;98539.97;5074487;28;19963;-74
2022/06/07 11:38:56;;;;;;;;;;;;;;;22.05;100.00;98543.03;5075532;28;19928;-74
2022/06/07 11:41:38;;;;;;;;;;;;;;;22.99;100.00;98541.03;5074251;28;19924;-74
2022/06/07 11:44:08;;;;;;;;;;;;;;;23.56;100.00;98548.19;5075810;28;19971;-75
2022/06/07 11:46:35;;;;;;;;;;;;;;;22.81;100.00;98541.56;5075716;28;20360;-75
2022/06/07 11:49:25;;;;;;;;;;;;;;;21.93;100.00;98540.69;5075451;28;19977;-74
2022/06/07 11:52:22;;;;;;;;;;;;;;;22.80;100.00;98548.56;5074267;28;19931;-74
2022/06/07 11:54:53;;;;;;;;;;;;;;;21.71;100.00;98535.66;5075144;28;19931;-75
2022/06/07 11:57:54;;;;;;;;;;;;;;;22.10;100.00;98556.47;5075562;28;19928;-74
2022/06/07 12:00:21;;;;;;;;;;;;;;;21.92;100.00;98562.63;5074970;28;19924;-75
2022/06/07 12:03:33;;;;;;;;;;;;;;;22.18;100.00;98551.84;5076164;28;19959;-75
2022/06/07 12:05:54;;;;;;;;;;;;;;;22.08;100.00;98559.09;5074818;28;19928;-75
2022/06/07 12:08:47;;;;;;;;;;;;;;;21.87;100.00;98574.75;5074606;28;19978;-75
2022/06/07 12:11:24;;;;;;;;;;;;;;;22.36;100.00;98559.13;5074400;28;20284;-76
2022/06/07 12:14:00;;;;;;;;;;;;;;;22.22;100.00;98568.69;5074694;28;19925;-75
2022/06/07 12:16:35;;;;;;;;;;;;;;;21.51;100.00;98574.84;5074386;28;19928;-76
2022/06/07 12:19:05;;;;;;;;;;;;;;;21.72;100.00;98568.47;5074716;28;19924;-75
2022/06/07 12:21:42;;;;;;;;;;;;;;;21.89;100.00;98572.19;5075436;28;20011;-76
2022/06/07 12:24:16;;;;;;;;;;;;;;;22.22;100.00;98569.44;5074027;28;20355;-76
2022/06/07 12:26:47;;;;;;;;;;;;;;;22.11;100.00;98569.44;5075755;28;19924;-75
2022/06/07 12:29:19;;;;;;;;;;;;;;;21.42;100.00;98570.94;5074273;28;19924;-75
2022/06/07 12:31:49;;;;;;;;;;;;;;;21.14;100.00;98577.72;5074458;28;19932;-76
2022/06/07 12:34:18;;;;;;;;;;;;;;;19.99;100.00;98577.41;5075694;28;20288;-76
2022/06/07 12:36:50;;;;;;;;;;;;;;;20.65;100.00;98580.94;5074154;28;20280;-75
2022/06/07 12:39:18;;;;;;;;;;;;;;;20.38;100.00;98578.63;5074978;28;19925;-76
2022/06/07 12:41:56;;;;;;;;;;;;;;;20.64;100.00;98588.69;5074466;28;19930;-76
2022/06/07 12:44:36;;;;;;;;;;;;;;;20.19;100.00;98583.06;5075386;28;19928;-75
2022/06/07 12:47:03;;;;;;;;;;;;;;;20.03;100.00;98575.91;5057394;28;19977;-75
2022/06/07 12:49:42;;;;;;;;;;;;;;;20.11;100.00;98577.03;5075379;28;19931;-75
2022/06/07 12:52:15;;;;;;;;;;;;;;;20.24;100.00;98568.16;5074910;28;19933;-76
2022/06/07 12:54:47;;;;;;;;;;;;;;;20.65;100.00;98563.91;5075336;28;20398;-75
2022/06/07 12:57:15;;;;;;;;;;;;;;;20.83;100.00;98558.63;5057673;28;19924;-76
2022/06/07 12:59:55;;;;;;;;;;;;;;;20.97;100.00;98551.28;5075053;28;20023;-75
2022/06/07 13:02:26;;;;;;;;;;;;;;;21.12;100.00;98537.69;5075130;28;19978;-75
2022/06/07 13:04:55;;;;;;;;;;;;;;;20.98;100.00;98532.94;5074954;28;19924;-76
2022/06/07 13:07:22;;;;;;;;;;;;;;;21.43;100.00;98527.00;5056852;28;20027;-75
2022/06/07 13:10:06;;;;;;;;;;;;;;;;;;5073783;28;19929;-76
2022/06/07 13:12:35;;;;;;;;;;;;;;;21.28;100.00;98517.13;5073572;28;19956;-75
2022/06/07 13:15:05;;;;;;;;;;;;;;;21.91;100.00;98514.81;5073480;28;19931;-76
2022/06/07 13:17:37;;;;;;;;;;;;;;;22.42;100.00;98509.44;5074699;28;20007;-76
2022/06/07 13:20:05;;;;;;;;;;;;;;;22.83;100.00;98493.41;5074380;28;19925;-76
2022/06/07 13:22:39;;;;;;;;;;;;;;;22.89;100.00;98499.88;5074109;28;19932;-75
2022/06/07 13:25:12;;;;;;;;;;;;;;;23.01;100.00;98498.56;5074549;28;19932;-75
2022/06/07 13:27:43;;;;;;;;;;;;;;;23.59;100.00;98484.41;5073842;28;19979;-75